createdAt,value
2019-04-29T00:00:48.173Z,10.37
2019-04-29T00:03:16.759Z,10.43
2019-04-29T00:05:45.584Z,10.47
2019-04-29T00:08:14.074Z,10.93
2019-04-29T00:10:42.502Z,10.83
2019-04-29T00:13:11.054Z,10.47
2019-04-29T00:15:44.114Z,10.57
2019-04-29T00:18:14.159Z,10.25
2019-04-29T00:20:44.265Z,10.57
2019-04-29T00:23:12.751Z,10.73
2019-04-29T00:25:41.448Z,10.67
2019-04-29T00:28:10.298Z,10.97
2019-04-29T00:30:38.723Z,10.18
2019-04-29T00:33:07.307Z,10.53
2019-04-29T00:35:36.643Z,10.43
2019-04-29T00:38:15.766Z,9.67
2019-04-29T00:40:45.853Z,9.87
2019-04-29T00:43:18.567Z,9.83
2019-04-29T00:45:46.973Z,10.03
2019-04-29T00:48:15.418Z,9.95
2019-04-29T00:50:43.822Z,9.20
2019-04-29T00:53:12.239Z,10.87
2019-04-29T00:55:40.979Z,12.47
2019-04-29T00:58:09.529Z,11.87
2019-04-29T01:00:40.218Z,11.80
2019-04-29T01:03:08.843Z,12.70
2019-04-29T01:05:37.709Z,12.80
2019-04-29T01:08:06.125Z,12.47
2019-04-29T01:10:34.599Z,12.13
2019-04-29T01:13:03.061Z,11.67
2019-04-29T01:15:31.502Z,12.50
2019-04-29T01:18:00.113Z,12.13
2019-04-29T01:20:28.513Z,12.53
2019-04-29T01:22:56.917Z,12.50
2019-04-29T01:25:25.375Z,12.17
2019-04-29T01:28:11.674Z,11.37
2019-04-29T01:31:02.614Z,11.07
2019-04-29T01:33:31.068Z,11.17
2019-04-29T01:36:04.081Z,11.03
2019-04-29T01:38:32.789Z,10.20
2019-04-29T01:41:12.196Z,11.20
2019-04-29T01:44:00.526Z,11.03
2019-04-29T01:46:29.365Z,11.30
2019-04-29T01:48:58.122Z,11.45
2019-04-29T01:51:26.567Z,12.37
2019-04-29T01:53:54.984Z,11.93
2019-04-29T01:56:23.553Z,12.27
2019-04-29T01:58:52.255Z,11.90
2019-04-29T02:01:20.644Z,11.67
2019-04-29T02:03:49.040Z,11.90
2019-04-29T02:06:17.792Z,11.38
2019-04-29T02:08:46.365Z,12.70
2019-04-29T02:11:14.780Z,10.90
2019-04-29T02:13:43.222Z,11.17
2019-04-29T02:16:11.626Z,10.70
2019-04-29T02:18:40.175Z,10.50
2019-04-29T02:21:08.890Z,11.53
2019-04-29T02:23:38.916Z,11.63
2019-04-29T02:26:07.826Z,10.20
2019-04-29T02:28:36.241Z,8.53
2019-04-29T02:31:22.373Z,9.57
2019-04-29T02:33:50.799Z,9.93
2019-04-29T02:36:19.209Z,10.65
2019-04-29T02:38:51.923Z,9.30
2019-04-29T02:41:27.425Z,10.00
2019-04-29T02:43:57.452Z,9.15
2019-04-29T02:46:25.893Z,8.77
2019-04-29T02:48:54.308Z,9.73
2019-04-29T02:51:40.688Z,10.13
2019-04-29T02:54:09.397Z,8.93
2019-04-29T02:56:38.265Z,10.10
2019-04-29T02:59:08.297Z,9.77
2019-04-29T03:01:44.163Z,10.27
2019-04-29T03:04:14.195Z,9.85
2019-04-29T03:06:42.714Z,9.67
2019-04-29T03:09:11.216Z,9.30
2019-04-29T03:11:39.664Z,9.30
2019-04-29T03:14:08.087Z,9.63
2019-04-29T03:16:36.506Z,9.17
2019-04-29T03:19:23.160Z,9.87
2019-04-29T03:21:53.501Z,9.57
2019-04-29T03:24:21.902Z,8.83
2019-04-29T03:26:50.289Z,9.20
2019-04-29T03:29:24.595Z,9.93
2019-04-29T03:31:54.062Z,8.87
2019-04-29T03:34:22.463Z,9.95
2019-04-29T03:36:51.154Z,9.07
2019-04-29T03:39:19.885Z,9.00
2019-04-29T03:41:48.448Z,9.63
2019-04-29T03:44:16.993Z,8.83
2019-04-29T03:46:45.463Z,9.63
2019-04-29T03:49:13.866Z,9.00
2019-04-29T03:51:42.290Z,8.60
2019-04-29T03:54:10.761Z,8.30
2019-04-29T03:56:39.261Z,8.57
2019-04-29T03:59:07.665Z,9.33
2019-04-29T04:01:52.779Z,8.30
2019-04-29T04:04:22.864Z,8.83
2019-04-29T04:06:52.896Z,9.00
2019-04-29T04:09:22.951Z,9.03
2019-04-29T04:11:51.360Z,8.97
2019-04-29T04:14:19.762Z,8.50
2019-04-29T04:16:58.945Z,8.93
2019-04-29T04:19:28.977Z,9.20
2019-04-29T04:21:57.370Z,9.30
2019-04-29T04:24:25.828Z,9.77
2019-04-29T04:26:54.223Z,9.50
2019-04-29T04:29:22.641Z,8.80
2019-04-29T04:31:51.079Z,10.20
2019-04-29T04:34:19.475Z,9.95
2019-04-29T04:36:47.907Z,9.95
2019-04-29T04:39:16.631Z,11.03
2019-04-29T04:41:45.038Z,10.83
2019-04-29T04:44:13.436Z,11.30
2019-04-29T04:46:41.895Z,10.97
2019-04-29T04:49:10.288Z,11.17
2019-04-29T04:51:38.705Z,11.87
2019-04-29T04:54:07.618Z,10.97
2019-04-29T04:56:36.135Z,11.57
2019-04-29T04:59:04.573Z,10.87
2019-04-29T05:01:32.999Z,11.00
2019-04-29T05:04:01.409Z,11.70
2019-04-29T05:06:29.823Z,10.13
2019-04-29T05:08:58.251Z,10.70
2019-04-29T05:11:26.643Z,11.33
2019-04-29T05:13:55.112Z,10.90
2019-04-29T05:16:23.533Z,10.63
2019-04-29T05:18:51.999Z,10.33
2019-04-29T05:21:20.404Z,10.68
2019-04-29T05:23:48.831Z,10.90
2019-04-29T05:26:17.272Z,10.97
2019-04-29T05:28:45.672Z,11.55
2019-04-29T05:31:14.705Z,12.03
2019-04-29T05:33:43.143Z,11.27
2019-04-29T05:36:25.476Z,11.07
2019-04-29T05:38:55.585Z,13.10
2019-04-29T05:41:24.446Z,12.10
2019-04-29T05:43:57.217Z,12.55
2019-04-29T05:46:38.930Z,13.00
2019-04-29T05:49:09.235Z,12.67
2019-04-29T05:51:39.264Z,13.13
2019-04-29T05:54:15.536Z,13.57
2019-04-29T05:56:44.221Z,15.20
2019-04-29T05:59:13.937Z,13.77
2019-04-29T06:01:46.616Z,13.60
2019-04-29T06:04:16.222Z,14.35
2019-04-29T06:06:42.846Z,15.27
2019-04-29T06:09:16.265Z,14.43
2019-04-29T06:11:41.421Z,12.87
2019-04-29T06:14:09.844Z,11.67
2019-04-29T06:16:38.236Z,12.53
2019-04-29T06:19:06.714Z,11.73
2019-04-29T06:21:35.111Z,13.57
2019-04-29T06:24:06.321Z,12.87
2019-04-29T06:26:34.954Z,13.50
2019-04-29T06:29:05.921Z,13.13
2019-04-29T06:31:33.526Z,11.63
2019-04-29T06:34:05.170Z,11.50
2019-04-29T06:36:32.085Z,11.20
2019-04-29T06:39:00.481Z,12.53
2019-04-29T06:41:28.901Z,12.67
2019-04-29T06:44:00.544Z,12.37
2019-04-29T06:46:27.453Z,10.80
2019-04-29T06:49:09.049Z,11.93
2019-04-29T06:51:25.984Z,10.40
2019-04-29T06:53:54.662Z,9.87
2019-04-29T06:56:23.056Z,9.60
2019-04-29T06:58:51.448Z,8.50
2019-04-29T07:01:20.292Z,9.03
2019-04-29T07:03:48.703Z,7.80
2019-04-29T07:06:17.121Z,6.17
2019-04-29T07:08:45.540Z,5.93
2019-04-29T07:11:14.137Z,6.37
2019-04-29T07:13:42.573Z,6.03
2019-04-29T07:16:11.006Z,6.10
2019-04-29T07:18:40.385Z,5.70
2019-04-29T07:21:11.876Z,5.57
2019-04-29T07:23:39.711Z,5.43
2019-04-29T07:26:08.109Z,5.13
2019-04-29T07:28:36.500Z,5.90
2019-04-29T07:31:05.232Z,5.93
2019-04-29T07:33:33.625Z,5.50
2019-04-29T07:36:10.827Z,5.90
2019-04-29T07:38:41.338Z,5.30
2019-04-29T07:41:02.304Z,5.53
2019-04-29T07:43:30.704Z,5.67
2019-04-29T07:46:03.798Z,5.40
2019-04-29T07:48:31.264Z,5.73
2019-04-29T07:51:04.190Z,5.77
2019-04-29T07:53:36.677Z,6.20
2019-04-29T07:56:01.648Z,6.10
2019-04-29T07:58:30.078Z,6.13
2019-04-29T08:00:58.478Z,6.33
2019-04-29T08:03:26.917Z,6.17
2019-04-29T08:05:55.688Z,6.70
2019-04-29T08:08:24.749Z,6.13
2019-04-29T08:10:56.535Z,6.73
2019-04-29T08:13:25.048Z,7.27
2019-04-29T08:15:53.451Z,7.30
2019-04-29T08:18:21.966Z,8.13
2019-04-29T08:20:50.385Z,8.50
2019-04-29T08:23:18.791Z,8.60
2019-04-29T08:25:47.251Z,9.00
2019-04-29T08:28:15.648Z,9.38
2019-04-29T08:30:45.855Z,10.10
2019-04-29T08:33:14.233Z,12.37
2019-04-29T08:35:42.655Z,11.33
2019-04-29T08:38:11.077Z,11.73
2019-04-29T08:40:39.516Z,10.63
2019-04-29T08:43:22.357Z,10.00
2019-04-29T08:45:52.652Z,10.60
2019-04-29T08:48:21.056Z,10.35
2019-04-29T08:50:49.462Z,9.87
2019-04-29T08:53:17.886Z,8.67
2019-04-29T08:55:46.561Z,9.17
2019-04-29T08:58:15.011Z,9.00
2019-04-29T09:00:43.699Z,8.93
2019-04-29T09:03:12.195Z,9.30
2019-04-29T09:05:41.733Z,9.70
2019-04-29T09:08:13.436Z,10.00
2019-04-29T09:10:41.058Z,8.73
2019-04-29T09:13:09.766Z,8.53
2019-04-29T09:15:38.393Z,8.63
2019-04-29T09:18:10.834Z,8.77
2019-04-29T09:20:38.137Z,8.93
2019-04-29T09:23:17.499Z,8.83
2019-04-29T09:26:02.867Z,8.10
2019-04-29T09:28:30.811Z,8.47
2019-04-29T09:30:59.244Z,7.97
2019-04-29T09:33:27.834Z,8.03
2019-04-29T09:35:56.252Z,7.93
2019-04-29T09:38:24.644Z,8.87
2019-04-29T09:40:59.430Z,9.57
2019-04-29T09:43:27.109Z,10.07
2019-04-29T09:46:03.175Z,9.43
2019-04-29T09:48:31.596Z,9.57
2019-04-29T09:51:00.035Z,9.47
2019-04-29T09:53:28.456Z,9.60
2019-04-29T09:55:57.488Z,10.10
2019-04-29T09:58:26.009Z,10.37
2019-04-29T10:01:13.948Z,9.93
2019-04-29T10:03:49.877Z,8.77
2019-04-29T10:06:32.027Z,8.27
2019-04-29T10:09:00.455Z,8.70
2019-04-29T10:11:28.849Z,6.90
2019-04-29T10:13:57.386Z,7.30
2019-04-29T10:16:37.214Z,8.77
2019-04-29T10:19:07.537Z,7.67
2019-04-29T10:21:35.944Z,6.53
2019-04-29T10:24:05.434Z,6.25
2019-04-29T10:26:33.828Z,5.57
2019-04-29T10:29:06.584Z,6.40
2019-04-29T10:31:35.006Z,5.67
2019-04-29T10:34:03.497Z,6.30
2019-04-29T10:36:31.890Z,7.20
2019-04-29T10:39:01.972Z,5.83
2019-04-29T10:41:32.002Z,6.03
2019-04-29T10:44:07.957Z,5.97
2019-04-29T10:46:54.193Z,6.00
2019-04-29T10:49:26.988Z,14.10
2019-04-29T10:51:58.097Z,5.80
2019-04-29T10:54:27.906Z,5.90
2019-04-29T10:56:56.429Z,4.90
2019-04-29T10:59:35.680Z,5.67
2019-04-29T11:02:13.942Z,6.30
2019-04-29T11:04:39.832Z,5.77
2019-04-29T11:07:19.058Z,6.10
2019-04-29T11:09:51.100Z,6.60
2019-04-29T11:12:20.600Z,6.07
2019-04-29T11:14:49.001Z,6.90
2019-04-29T11:17:19.460Z,7.53
2019-04-29T11:19:47.887Z,6.63
2019-04-29T11:22:18.055Z,6.50
2019-04-29T11:24:48.209Z,6.10
2019-04-29T11:27:18.249Z,5.53
2019-04-29T11:29:46.645Z,6.00
2019-04-29T11:32:17.054Z,5.67
2019-04-29T11:34:56.430Z,5.13
2019-04-29T11:37:25.630Z,5.87
2019-04-29T11:39:56.969Z,5.73
2019-04-29T11:42:24.586Z,5.77
2019-04-29T11:44:57.145Z,4.70
2019-04-29T11:47:25.117Z,5.67
2019-04-29T11:49:57.445Z,7.40
2019-04-29T11:52:28.126Z,8.33
2019-04-29T11:54:56.083Z,9.23
2019-04-29T11:57:40.392Z,9.80
2019-04-29T12:00:00.789Z,10.00
2019-04-29T12:02:44.500Z,8.60
2019-04-29T12:05:04.082Z,6.83
2019-04-29T12:07:34.103Z,6.23
2019-04-29T12:10:06.453Z,6.27
2019-04-29T12:12:32.883Z,6.77
2019-04-29T12:15:19.545Z,6.67
2019-04-29T12:18:01.678Z,6.73
2019-04-29T12:20:31.744Z,7.00
2019-04-29T12:23:00.207Z,6.20
2019-04-29T12:25:29.351Z,6.77
2019-04-29T12:28:01.639Z,7.83
2019-04-29T12:30:34.702Z,7.80
2019-04-29T12:33:03.182Z,7.57
2019-04-29T12:35:52.077Z,7.33
2019-04-29T12:38:39.842Z,7.23
2019-04-29T12:41:25.633Z,6.40
2019-04-29T12:43:55.596Z,6.27
2019-04-29T12:46:43.493Z,6.75
2019-04-29T12:49:13.767Z,7.47
2019-04-29T12:51:42.025Z,8.03
2019-04-29T12:54:10.474Z,7.83
2019-04-29T12:56:43.322Z,7.83
2019-04-29T12:59:11.494Z,7.70
2019-04-29T13:01:58.720Z,7.17
2019-04-29T13:04:49.751Z,6.97
2019-04-29T13:07:24.877Z,7.40
2019-04-29T13:09:54.913Z,8.80
2019-04-29T13:12:23.312Z,9.13
2019-04-29T13:15:12.570Z,9.77
2019-04-29T13:17:40.151Z,10.00
2019-04-29T13:20:11.705Z,10.27
2019-04-29T13:22:40.248Z,7.50
2019-04-29T13:25:09.179Z,7.20
2019-04-29T13:27:37.936Z,6.83
2019-04-29T13:32:40.988Z,7.80
2019-04-29T13:33:22.915Z,8.27
2019-04-29T13:35:12.049Z,7.70
2019-04-29T13:37:40.098Z,7.17
2019-04-29T13:40:09.202Z,7.20
2019-04-29T13:42:37.803Z,6.83
2019-04-29T13:45:13.759Z,5.93
2019-04-29T13:47:50.236Z,6.20
2019-04-29T13:50:23.587Z,6.27
2019-04-29T13:52:47.507Z,6.50
2019-04-29T13:55:20.056Z,6.67
2019-04-29T13:57:49.579Z,6.83
2019-04-29T14:00:36.434Z,6.47
2019-04-29T14:03:12.976Z,6.65
2019-04-29T14:05:41.839Z,6.07
2019-04-29T14:08:10.283Z,7.13
2019-04-29T14:10:38.710Z,6.90
2019-04-29T14:13:13.312Z,6.77
2019-04-29T14:15:40.322Z,7.60
2019-04-29T14:18:11.641Z,7.00
2019-04-29T14:20:37.768Z,6.10
2019-04-29T14:23:06.173Z,6.37
2019-04-29T14:25:34.617Z,7.00
2019-04-29T14:28:03.017Z,6.73
2019-04-29T14:30:38.819Z,8.43
2019-04-29T14:33:03.029Z,7.17
2019-04-29T14:35:36.351Z,7.47
2019-04-29T14:38:06.241Z,6.80
2019-04-29T14:40:38.959Z,7.20
2019-04-29T14:43:28.571Z,7.53
2019-04-29T14:46:00.237Z,8.78
2019-04-29T14:48:48.363Z,9.27
2019-04-29T14:51:16.787Z,8.90
2019-04-29T14:53:56.151Z,8.50
2019-04-29T14:56:15.859Z,7.77
2019-04-29T14:58:44.634Z,7.90
2019-04-29T15:01:17.388Z,7.20
2019-04-29T15:03:53.244Z,9.00
2019-04-29T15:06:21.894Z,8.70
2019-04-29T15:08:50.604Z,8.60
2019-04-29T15:11:31.379Z,8.83
2019-04-29T15:13:52.833Z,9.00
2019-04-29T15:16:34.744Z,10.03
2019-04-29T15:19:12.743Z,8.73
2019-04-29T15:21:42.914Z,8.50
2019-04-29T15:24:08.412Z,7.37
2019-04-29T15:26:36.989Z,8.30
2019-04-29T15:29:05.502Z,7.63
2019-04-29T15:31:33.914Z,9.90
2019-04-29T15:34:02.322Z,9.53
2019-04-29T15:36:34.789Z,10.70
2019-04-29T15:39:09.825Z,10.10
2019-04-29T15:41:33.314Z,10.20
2019-04-29T15:44:07.415Z,9.63
2019-04-29T15:46:45.512Z,8.53
2019-04-29T15:49:01.488Z,8.20
2019-04-29T15:51:29.928Z,8.07
2019-04-29T15:53:58.324Z,8.70
2019-04-29T15:56:29.358Z,8.50
2019-04-29T15:58:59.702Z,9.17
2019-04-29T16:01:30.483Z,9.60
2019-04-29T16:04:00.780Z,9.70
2019-04-29T16:06:40.191Z,9.67
2019-04-29T16:09:09.128Z,9.30
2019-04-29T16:11:55.849Z,10.03
2019-04-29T16:14:25.214Z,9.30
2019-04-29T16:16:53.633Z,9.47
2019-04-29T16:19:22.073Z,9.07
2019-04-29T16:21:50.480Z,9.53
2019-04-29T16:24:26.478Z,9.30
2019-04-29T16:26:53.480Z,9.40
2019-04-29T16:29:19.156Z,9.67
2019-04-29T16:31:47.602Z,8.93
2019-04-29T16:34:18.782Z,8.70
2019-04-29T16:36:49.678Z,8.43
2019-04-29T16:39:18.117Z,8.93
2019-04-29T16:42:01.306Z,8.37
2019-04-29T16:44:36.781Z,8.27
2019-04-29T16:47:00.451Z,8.10
2019-04-29T16:49:28.987Z,7.93
2019-04-29T16:51:57.437Z,7.80
2019-04-29T16:54:28.505Z,7.63
2019-04-29T16:56:55.940Z,7.60
2019-04-29T16:59:24.374Z,6.70
2019-04-29T17:01:52.842Z,5.70
2019-04-29T17:04:21.781Z,5.28
2019-04-29T17:07:11.223Z,4.40
2019-04-29T17:09:23.234Z,4.97
2019-04-29T17:11:56.049Z,4.83
2019-04-29T17:14:22.344Z,4.20
2019-04-29T17:16:50.855Z,4.40
2019-04-29T17:19:19.365Z,3.90
2019-04-29T17:21:47.925Z,4.03
2019-04-29T17:24:16.383Z,3.87
2019-04-29T17:26:52.411Z,3.97
2019-04-29T17:29:38.783Z,3.50
2019-04-29T17:32:20.417Z,4.03
2019-04-29T17:34:59.072Z,4.23
2019-04-29T17:37:20.509Z,3.73
2019-04-29T17:39:48.904Z,4.13
2019-04-29T17:42:17.432Z,4.50
2019-04-29T17:44:46.727Z,4.20
2019-04-29T17:47:37.745Z,4.10
2019-04-29T17:50:30.775Z,4.03
2019-04-29T17:52:55.720Z,4.90
2019-04-29T17:55:42.078Z,4.00
2019-04-29T17:58:19.318Z,4.17
2019-04-29T18:00:56.299Z,4.33
2019-04-29T18:03:41.524Z,4.60
2019-04-29T18:06:12.443Z,4.70
2019-04-29T18:08:48.498Z,4.80
2019-04-29T18:11:16.970Z,4.50
2019-04-29T18:13:45.877Z,4.40
2019-04-29T18:16:19.115Z,4.40
2019-04-29T18:18:57.653Z,4.80
2019-04-29T18:21:43.456Z,4.90
2019-04-29T18:24:09.804Z,4.50
2019-04-29T18:26:49.673Z,4.50
2019-04-29T18:29:18.932Z,4.60
2019-04-29T18:31:47.336Z,4.70
2019-04-29T18:34:15.762Z,4.60
2019-04-29T18:36:45.686Z,4.47
2019-04-29T18:39:15.981Z,4.60
2019-04-29T18:41:44.855Z,4.93
2019-04-29T18:44:19.312Z,4.73
2019-04-29T18:46:52.754Z,4.57
2019-04-29T18:49:13.668Z,4.63
2019-04-29T18:51:42.088Z,5.10
2019-04-29T18:54:10.477Z,4.70
2019-04-29T18:56:38.929Z,4.40
2019-04-29T18:59:07.320Z,4.80
2019-04-29T19:01:35.768Z,5.23
2019-04-29T19:04:16.172Z,5.00
2019-04-29T19:06:40.608Z,4.27
2019-04-29T19:09:17.810Z,4.67
2019-04-29T19:11:39.313Z,4.70
2019-04-29T19:14:07.903Z,4.80
2019-04-29T19:16:39.225Z,5.40
2019-04-29T19:19:06.444Z,5.20
2019-04-29T19:21:34.848Z,5.10
2019-04-29T19:24:04.875Z,4.90
2019-04-29T19:26:34.969Z,4.93
2019-04-29T19:29:06.143Z,5.23
2019-04-29T19:31:36.888Z,5.12
2019-04-29T19:34:05.561Z,4.90
2019-04-29T19:36:35.011Z,4.97
2019-04-29T19:39:05.915Z,5.40
2019-04-29T19:41:35.595Z,5.23
2019-04-29T19:44:05.804Z,5.10
2019-04-29T19:46:38.279Z,5.50
2019-04-29T19:49:09.687Z,5.50
2019-04-29T19:51:35.153Z,4.77
2019-04-29T19:54:05.156Z,5.35
2019-04-29T19:56:33.579Z,5.40
2019-04-29T19:59:10.477Z,5.50
2019-04-29T20:01:32.921Z,5.80
2019-04-29T20:04:17.892Z,5.73
2019-04-29T20:06:44.919Z,6.20
2019-04-29T20:09:18.076Z,6.05
2019-04-29T20:11:45.794Z,6.23
2019-04-29T20:14:20.480Z,6.27
2019-04-29T20:16:56.692Z,6.20
2019-04-29T20:19:29.879Z,6.30
2019-04-29T20:22:00.325Z,6.03
2019-04-29T20:24:28.895Z,6.57
2019-04-29T20:26:57.474Z,6.80
2019-04-29T20:29:27.218Z,7.20
2019-04-29T20:31:56.511Z,7.20
2019-04-29T20:34:28.102Z,7.47
2019-04-29T20:36:55.811Z,7.60
2019-04-29T20:39:26.156Z,7.60
2019-04-29T20:41:56.014Z,7.87
2019-04-29T20:44:24.731Z,8.30
2019-04-29T20:47:15.647Z,8.50
2019-04-29T20:49:23.595Z,8.80
2019-04-29T20:51:55.606Z,8.50
2019-04-29T20:54:25.959Z,8.60
2019-04-29T20:57:02.862Z,9.40
2019-04-29T20:59:25.868Z,9.63
2019-04-29T21:02:12.080Z,10.37
2019-04-29T21:04:44.688Z,10.90
2019-04-29T21:07:02.897Z,11.37
2019-04-29T21:09:31.371Z,12.30
2019-04-29T21:12:13.440Z,12.10
2019-04-29T21:14:46.534Z,12.90
2019-04-29T21:17:28.221Z,13.23
2019-04-29T21:19:45.152Z,13.80
2019-04-29T21:22:20.368Z,15.00
2019-04-29T21:24:45.316Z,15.27
2019-04-29T21:27:15.879Z,15.45
2019-04-29T21:29:45.686Z,16.63
2019-04-29T21:32:15.655Z,16.87
2019-04-29T21:34:45.856Z,18.00
2019-04-29T21:37:15.920Z,18.63
2019-04-29T21:39:46.864Z,17.87
2019-04-29T21:42:35.685Z,18.67
2019-04-29T21:45:08.825Z,18.45
2019-04-29T21:47:42.690Z,19.87
2019-04-29T21:50:07.908Z,20.87
2019-04-29T21:52:36.893Z,21.73
2019-04-29T21:55:06.060Z,20.90
2019-04-29T21:57:34.491Z,22.40
2019-04-29T22:00:05.686Z,23.43
2019-04-29T22:02:35.863Z,22.80
2019-04-29T22:05:09.573Z,23.77
2019-04-29T22:07:39.821Z,24.60
2019-04-29T22:10:07.763Z,25.27
2019-04-29T22:12:36.237Z,24.93
2019-04-29T22:15:06.307Z,27.33
2019-04-29T22:17:36.040Z,25.97
2019-04-29T22:20:07.896Z,26.93
2019-04-29T22:22:36.623Z,27.23
2019-04-29T22:25:09.834Z,29.03
2019-04-29T22:27:39.455Z,27.87
2019-04-29T22:30:15.311Z,28.23
2019-04-29T22:32:41.240Z,28.83
2019-04-29T22:35:09.708Z,29.13
2019-04-29T22:37:38.464Z,29.03
2019-04-29T22:40:08.368Z,30.25
2019-04-29T22:42:39.278Z,29.42
2019-04-29T22:45:09.412Z,30.73
2019-04-29T22:47:37.811Z,30.07
2019-04-29T22:50:06.771Z,29.57
2019-04-29T22:52:36.811Z,29.60
2019-04-29T22:55:07.038Z,27.57
2019-04-29T22:57:35.469Z,27.63
2019-04-29T23:00:08.909Z,27.27
2019-04-29T23:02:37.317Z,24.93
2019-04-29T23:05:06.548Z,24.23
2019-04-29T23:07:35.579Z,24.70
2019-04-29T23:10:06.675Z,25.20
2019-04-29T23:12:35.164Z,24.37
2019-04-29T23:15:06.140Z,25.57
2019-04-29T23:17:35.431Z,23.83
2019-04-29T23:20:16.344Z,23.37
2019-04-29T23:22:46.379Z,23.83
2019-04-29T23:25:25.991Z,23.37
2019-04-29T23:27:52.727Z,24.17
2019-04-29T23:30:23.892Z,23.90
2019-04-29T23:32:52.316Z,23.40
2019-04-29T23:35:20.768Z,24.13
2019-04-29T23:37:49.165Z,23.70
2019-04-29T23:40:17.572Z,24.12
2019-04-29T23:42:47.833Z,24.70
2019-04-29T23:45:21.186Z,22.87
2019-04-29T23:47:50.235Z,24.20
2019-04-29T23:50:18.772Z,23.30
2019-04-29T23:52:50.257Z,22.87
2019-04-29T23:55:20.557Z,22.97
2019-04-29T23:57:48.717Z,23.97
